Time,TemperatureF,DewpointF,PressureIn,WindDirection,WindDirectionDegrees,WindSpeedMPH,WindSpeedGustMPH,Humidity,HourlyPrecipIn,Conditions,Clouds,dailyrainin,SoftwareType,DateUTC
2013-01-28 00:02:00,40.5,36.0,30.13,NNE,14,2.0,4.0,84,0.00,,,0.00,Wunderground v.1.15,2013-01-28 08:02:00,
2013-01-28 00:08:00,40.4,35.9,30.14,NNE,30,2.0,4.0,84,0.00,,,0.00,Wunderground v.1.15,2013-01-28 08:08:00,
2013-01-28 00:13:00,40.4,36.2,30.14,North,11,2.0,4.0,85,0.00,,,0.00,Wunderground v.1.15,2013-01-28 08:13:00,
2013-01-28 00:19:00,40.4,36.2,30.14,North,360,2.0,4.0,85,0.00,,,0.00,Wunderground v.1.15,2013-01-28 08:19:00,
2013-01-28 00:25:00,40.1,36.0,30.14,North,6,2.0,4.0,85,0.00,,,0.00,Wunderground v.1.15,2013-01-28 08:25:00,
2013-01-28 00:30:00,39.9,36.1,30.14,North,350,2.0,4.0,86,0.00,,,0.00,Wunderground v.1.15,2013-01-28 08:30:00,
2013-01-28 00:36:00,39.7,36.1,30.14,North,353,2.0,4.0,87,0.00,,,0.00,Wunderground v.1.15,2013-01-28 08:36:00,
2013-01-28 00:41:00,39.7,36.1,30.14,North,353,2.0,4.0,87,0.00,,,0.00,Wunderground v.1.15,2013-01-28 08:41:00,
2013-01-28 00:47:00,39.5,36.0,30.14,North,356,2.0,4.0,87,0.00,,,0.00,Wunderground v.1.15,2013-01-28 08:47:00,
2013-01-28 00:52:00,39.3,35.8,30.15,NNW,339,2.0,4.0,87,0.00,,,0.00,Wunderground v.1.15,2013-01-28 08:52:00,
2013-01-28 00:58:00,38.9,35.4,30.15,NNW,332,2.0,4.0,87,0.00,,,0.00,Wunderground v.1.15,2013-01-28 08:58:00,
2013-01-28 01:04:00,38.6,35.4,30.15,NNW,332,1.0,4.0,88,0.00,,,0.00,Wunderground v.1.15,2013-01-28 09:04:00,
2013-01-28 01:09:00,38.4,35.2,30.15,NNW,333,1.0,4.0,88,0.00,,,0.00,Wunderground v.1.15,2013-01-28 09:09:00,
2013-01-28 01:15:00,38.1,35.1,30.15,NNW,333,1.0,4.0,89,0.00,,,0.00,Wunderground v.1.15,2013-01-28 09:15:00,
2013-01-28 01:21:00,37.9,34.9,30.15,NNW,332,1.0,4.0,89,0.00,,,0.00,Wunderground v.1.15,2013-01-28 09:21:00,
2013-01-28 01:27:00,37.7,34.8,30.15,NNW,333,1.0,4.0,89,0.00,,,0.00,Wunderground v.1.15,2013-01-28 09:27:00,
2013-01-28 01:34:00,37.5,34.6,30.15,NNW,333,1.0,4.0,89,0.00,,,0.00,Wunderground v.1.15,2013-01-28 09:34:00,
2013-01-28 01:39:00,37.2,34.3,30.15,NNW,333,1.0,4.0,89,0.00,,,0.00,Wunderground v.1.15,2013-01-28 09:39:00,
2013-01-28 01:45:00,37.1,34.4,30.16,NNW,333,1.0,4.0,90,0.00,,,0.00,Wunderground v.1.15,2013-01-28 09:45:00,
2013-01-28 01:51:00,37.2,34.5,30.16,NNW,332,1.0,4.0,90,0.00,,,0.00,Wunderground v.1.15,2013-01-28 09:51:00,
2013-01-28 01:57:00,37.3,34.6,30.15,NW,323,1.0,4.0,90,0.00,,,0.00,Wunderground v.1.15,2013-01-28 09:57:00,
2013-01-28 02:02:00,37.2,34.5,30.16,NW,323,1.0,4.0,90,0.00,,,0.00,Wunderground v.1.15,2013-01-28 10:02:00,
2013-01-28 02:08:00,36.9,34.2,30.16,NW,323,1.0,4.0,90,0.00,,,0.00,Wunderground v.1.15,2013-01-28 10:08:00,
2013-01-28 02:14:00,36.6,33.9,30.16,NNW,328,1.0,4.0,90,0.00,,,0.00,Wunderground v.1.15,2013-01-28 10:14:00,
2013-01-28 02:20:00,36.5,33.8,30.16,NNW,338,1.0,4.0,90,0.00,,,0.00,Wunderground v.1.15,2013-01-28 10:20:00,
2013-01-28 02:26:00,36.3,33.9,30.16,NNW,334,1.0,4.0,91,0.00,,,0.00,Wunderground v.1.15,2013-01-28 10:26:00,
2013-01-28 02:32:00,36.3,33.9,30.16,NNW,333,1.0,4.0,91,0.00,,,0.00,Wunderground v.1.15,2013-01-28 10:32:00,
2013-01-28 02:38:00,36.4,34.3,30.16,NNW,327,1.0,4.0,92,0.00,,,0.00,Wunderground v.1.15,2013-01-28 10:38:00,
2013-01-28 02:43:00,36.4,34.0,30.16,NNW,327,1.0,4.0,91,0.00,,,0.00,Wunderground v.1.15,2013-01-28 10:43:00,
2013-01-28 02:49:00,36.3,33.9,30.16,NW,326,1.0,4.0,91,0.00,,,0.00,Wunderground v.1.15,2013-01-28 10:49:00,
2013-01-28 02:55:00,36.2,34.1,30.16,NNW,327,1.0,4.0,92,0.00,,,0.00,Wunderground v.1.15,2013-01-28 10:55:00,
2013-01-28 03:01:00,36.0,33.9,30.16,NNW,327,2.0,4.0,92,0.00,,,0.00,Wunderground v.1.15,2013-01-28 11:01:00,
2013-01-28 03:07:00,36.1,34.0,30.16,NW,326,1.0,4.0,92,0.00,,,0.00,Wunderground v.1.15,2013-01-28 11:07:00,
2013-01-28 03:12:00,36.1,34.0,30.16,NW,326,2.0,4.0,92,0.00,,,0.00,Wunderground v.1.15,2013-01-28 11:12:00,
2013-01-28 03:19:00,36.1,34.0,30.16,NW,326,2.0,4.0,92,0.00,,,0.00,Wunderground v.1.15,2013-01-28 11:19:00,
2013-01-28 03:24:00,36.0,33.9,30.15,NW,326,2.0,4.0,92,0.00,,,0.00,Wunderground v.1.15,2013-01-28 11:24:00,
2013-01-28 03:30:00,35.8,33.7,30.15,NNW,327,1.0,4.0,92,0.00,,,0.00,Wunderground v.1.15,2013-01-28 11:30:00,
2013-01-28 03:36:00,35.6,33.5,30.15,NNW,327,2.0,4.0,92,0.00,,,0.00,Wunderground v.1.15,2013-01-28 11:36:00,
2013-01-28 03:42:00,35.6,33.5,30.16,NW,326,2.0,4.0,92,0.00,,,0.00,Wunderground v.1.15,2013-01-28 11:42:00,
2013-01-28 03:48:00,35.7,33.9,30.16,NNW,328,2.0,4.0,93,0.00,,,0.00,Wunderground v.1.15,2013-01-28 11:48:00,
2013-01-28 03:54:00,35.8,34.0,30.16,NNW,328,2.0,4.0,93,0.00,,,0.00,Wunderground v.1.15,2013-01-28 11:54:00,
2013-01-28 04:00:00,35.8,33.7,30.16,NNW,328,1.0,4.0,92,0.00,,,0.00,Wunderground v.1.15,2013-01-28 12:00:00,
2013-01-28 04:05:00,35.7,33.9,30.16,NNW,328,1.0,4.0,93,0.00,,,0.00,Wunderground v.1.15,2013-01-28 12:05:00,
2013-01-28 04:11:00,35.7,33.9,30.16,NNW,328,2.0,4.0,93,0.00,,,0.00,Wunderground v.1.15,2013-01-28 12:11:00,
2013-01-28 04:16:00,35.6,33.8,30.16,NNW,328,1.0,4.0,93,0.00,,,0.00,Wunderground v.1.15,2013-01-28 12:16:00,
2013-01-28 04:22:00,35.4,33.6,30.17,NNW,328,1.0,4.0,93,0.00,,,0.00,Wunderground v.1.15,2013-01-28 12:22:00,
2013-01-28 04:27:00,35.4,33.6,30.17,NNW,328,1.0,4.0,93,0.00,,,0.00,Wunderground v.1.15,2013-01-28 12:27:00,
2013-01-28 04:33:00,35.3,33.5,30.17,NNW,328,1.0,4.0,93,0.00,,,0.00,Wunderground v.1.15,2013-01-28 12:33:00,
2013-01-28 04:39:00,35.3,33.5,30.17,NNW,328,1.0,4.0,93,0.00,,,0.00,Wunderground v.1.15,2013-01-28 12:39:00,
2013-01-28 04:44:00,35.3,33.5,30.17,NNW,328,1.0,4.0,93,0.00,,,0.00,Wunderground v.1.15,2013-01-28 12:44:00,
2013-01-28 04:50:00,35.3,33.5,30.17,NNW,328,1.0,4.0,93,0.00,,,0.00,Wunderground v.1.15,2013-01-28 12:50:00,
2013-01-28 04:55:00,35.3,33.5,30.17,NNW,328,1.0,4.0,93,0.00,,,0.00,Wunderground v.1.15,2013-01-28 12:55:00,
2013-01-28 05:01:00,35.2,33.4,30.16,NNW,328,1.0,4.0,93,0.00,,,0.00,Wunderground v.1.15,2013-01-28 13:01:00,
2013-01-28 05:07:00,35.1,33.3,30.16,NNW,328,1.0,4.0,93,0.00,,,0.00,Wunderground v.1.15,2013-01-28 13:07:00,
2013-01-28 05:13:00,35.0,33.2,30.16,NW,326,1.0,4.0,93,0.00,,,0.00,Wunderground v.1.15,2013-01-28 13:13:00,
2013-01-28 05:19:00,35.0,33.2,30.16,NNW,327,1.0,4.0,93,0.00,,,0.00,Wunderground v.1.15,2013-01-28 13:19:00,
2013-01-28 05:25:00,34.9,33.1,30.16,NNW,328,1.0,4.0,93,0.00,,,0.00,Wunderground v.1.15,2013-01-28 13:25:00,
2013-01-28 05:31:00,34.8,33.0,30.17,NNW,328,1.0,4.0,93,0.00,,,0.00,Wunderground v.1.15,2013-01-28 13:31:00,
2013-01-28 05:37:00,34.8,33.0,30.17,NNW,328,2.0,4.0,93,0.00,,,0.00,Wunderground v.1.15,2013-01-28 13:37:00,
2013-01-28 05:44:00,34.8,33.0,30.17,NW,326,1.0,4.0,93,0.00,,,0.00,Wunderground v.1.15,2013-01-28 13:44:00,
2013-01-28 05:49:00,34.8,33.0,30.17,NW,326,1.0,4.0,93,0.00,,,0.00,Wunderground v.1.15,2013-01-28 13:49:00,
2013-01-28 05:54:00,34.8,33.0,30.17,NW,326,1.0,4.0,93,0.00,,,0.00,Wunderground v.1.15,2013-01-28 13:54:00,
2013-01-28 06:00:00,34.8,33.0,30.17,NW,326,1.0,4.0,93,0.00,,,0.00,Wunderground v.1.15,2013-01-28 14:00:00,
2013-01-28 06:06:00,34.9,33.1,30.17,NW,326,1.0,4.0,93,0.00,,,0.00,Wunderground v.1.15,2013-01-28 14:06:00,
2013-01-28 06:12:00,34.8,33.0,30.18,NNW,328,1.0,4.0,93,0.00,,,0.00,Wunderground v.1.15,2013-01-28 14:12:00,
2013-01-28 06:18:00,34.8,33.0,30.18,NNW,328,1.0,4.0,93,0.00,,,0.00,Wunderground v.1.15,2013-01-28 14:18:00,
2013-01-28 06:24:00,34.8,33.0,30.18,NNW,328,1.0,4.0,93,0.00,,,0.00,Wunderground v.1.15,2013-01-28 14:24:00,
2013-01-28 06:29:00,34.8,33.0,30.18,NNW,328,1.0,4.0,93,0.00,,,0.00,Wunderground v.1.15,2013-01-28 14:29:00,
2013-01-28 06:34:00,35.0,33.2,30.18,NNW,328,1.0,4.0,93,0.00,,,0.00,Wunderground v.1.15,2013-01-28 14:34:00,
2013-01-28 06:39:00,35.2,33.6,30.18,NW,326,1.0,4.0,94,0.00,,,0.00,Wunderground v.1.15,2013-01-28 14:39:00,
2013-01-28 06:45:00,35.1,33.3,30.18,NNW,332,2.0,4.0,93,0.00,,,0.00,Wunderground v.1.15,2013-01-28 14:45:00,
2013-01-28 06:51:00,34.8,33.0,30.18,NW,322,2.0,4.0,93,0.00,,,0.00,Wunderground v.1.15,2013-01-28 14:51:00,
2013-01-28 06:57:00,34.5,32.7,30.18,NW,322,2.0,4.0,93,0.00,,,0.00,Wunderground v.1.15,2013-01-28 14:57:00,
2013-01-28 07:03:00,34.7,32.9,30.19,NNW,338,1.0,4.0,93,0.00,,,0.00,Wunderground v.1.15,2013-01-28 15:03:00,
2013-01-28 07:09:00,34.8,33.0,30.18,NNW,330,1.0,4.0,93,0.00,,,0.00,Wunderground v.1.15,2013-01-28 15:09:00,
2013-01-28 07:14:00,35.0,33.4,30.18,NNW,330,1.0,4.0,94,0.00,,,0.00,Wunderground v.1.15,2013-01-28 15:14:00,
2013-01-28 07:19:00,35.4,33.8,30.19,NNW,330,2.0,4.0,94,0.00,,,0.00,Wunderground v.1.15,2013-01-28 15:19:00,
2013-01-28 07:25:00,35.9,34.3,30.18,NNW,330,2.0,4.0,94,0.00,,,0.00,Wunderground v.1.15,2013-01-28 15:25:00,
2013-01-28 07:30:00,36.5,34.9,30.18,North,7,1.0,4.0,94,0.00,,,0.00,Wunderground v.1.15,2013-01-28 15:30:00,
2013-01-28 07:35:00,37.1,35.3,30.18,North,356,2.0,4.0,93,0.00,,,0.00,Wunderground v.1.15,2013-01-28 15:35:00,
2013-01-28 07:40:00,37.5,35.7,30.18,NNE,20,2.0,4.0,93,0.00,,,0.00,Wunderground v.1.15,2013-01-28 15:40:00,
2013-01-28 07:46:00,38.0,35.9,30.18,NNW,347,1.0,4.0,92,0.00,,,0.00,Wunderground v.1.15,2013-01-28 15:46:00,
2013-01-28 07:51:00,38.4,36.0,30.18,North,349,1.0,4.0,91,0.00,,,0.00,Wunderground v.1.15,2013-01-28 15:51:00,
2013-01-28 07:56:00,38.5,36.1,30.18,North,349,1.0,4.0,91,0.00,,,0.00,Wunderground v.1.15,2013-01-28 15:56:00,
2013-01-28 08:02:00,38.8,36.1,30.18,NNE,29,2.0,4.0,90,0.00,,,0.00,Wunderground v.1.15,2013-01-28 16:02:00,
2013-01-28 08:07:00,39.2,36.2,30.18,NNE,14,3.0,4.0,89,0.00,,,0.00,Wunderground v.1.15,2013-01-28 16:07:00,
2013-01-28 08:14:00,39.7,36.7,30.19,NNE,27,3.0,4.0,89,0.00,,,0.00,Wunderground v.1.15,2013-01-28 16:14:00,
2013-01-28 08:19:00,40.5,37.2,30.19,East,87,2.0,4.0,88,0.00,,,0.00,Wunderground v.1.15,2013-01-28 16:19:00,
2013-01-28 08:25:00,41.3,37.7,30.19,NE,53,1.0,4.0,87,0.00,,,0.00,Wunderground v.1.15,2013-01-28 16:25:00,
2013-01-28 08:30:00,41.8,37.9,30.19,NE,53,1.0,4.0,86,0.00,,,0.00,Wunderground v.1.15,2013-01-28 16:30:00,
2013-01-28 08:36:00,42.3,38.1,30.19,NE,53,1.0,4.0,85,0.00,,,0.00,Wunderground v.1.15,2013-01-28 16:36:00,
2013-01-28 08:41:00,43.0,38.8,30.19,NE,53,1.0,4.0,85,0.00,,,0.00,Wunderground v.1.15,2013-01-28 16:41:00,
2013-01-28 08:46:00,44.0,39.8,30.20,NE,53,1.0,4.0,85,0.00,,,0.00,Wunderground v.1.15,2013-01-28 16:46:00,
2013-01-28 08:52:00,45.1,40.6,30.20,WNW,301,0.0,4.0,84,0.00,,,0.00,Wunderground v.1.15,2013-01-28 16:52:00,
2013-01-28 08:58:00,46.3,41.1,30.19,NW,304,1.0,4.0,82,0.00,,,0.00,Wunderground v.1.15,2013-01-28 16:58:00,
2013-01-28 09:04:00,46.9,41.7,30.20,NW,312,1.0,4.0,82,0.00,,,0.00,Wunderground v.1.15,2013-01-28 17:04:00,
2013-01-28 09:09:00,47.4,41.9,30.20,NW,312,1.0,4.0,81,0.00,,,0.00,Wunderground v.1.15,2013-01-28 17:09:00,
2013-01-28 09:15:00,47.6,42.1,30.20,WNW,300,1.0,4.0,81,0.00,,,0.00,Wunderground v.1.15,2013-01-28 17:15:00,
2013-01-28 09:21:00,47.8,42.3,30.20,West,272,1.0,4.0,81,0.00,,,0.00,Wunderground v.1.15,2013-01-28 17:21:00,
2013-01-28 09:26:00,48.0,42.4,30.20,West,271,1.0,4.0,81,0.00,,,0.00,Wunderground v.1.15,2013-01-28 17:26:00,
2013-01-28 09:31:00,48.1,42.2,30.20,SSW,205,1.0,4.0,80,0.00,,,0.00,Wunderground v.1.15,2013-01-28 17:31:00,
2013-01-28 09:37:00,47.6,42.4,30.20,SSW,198,2.0,4.0,82,0.00,,,0.00,Wunderground v.1.15,2013-01-28 17:37:00,
2013-01-28 09:43:00,47.8,42.3,30.20,SW,228,2.0,4.0,81,0.00,,,0.00,Wunderground v.1.15,2013-01-28 17:43:00,
2013-01-28 09:49:00,48.1,42.5,30.20,SSW,199,2.0,4.0,81,0.00,,,0.00,Wunderground v.1.15,2013-01-28 17:49:00,
2013-01-28 09:54:00,48.0,42.8,30.20,SW,231,3.0,6.0,82,0.00,,,0.00,Wunderground v.1.15,2013-01-28 17:54:00,
2013-01-28 09:59:00,48.6,43.4,30.20,WSW,243,3.0,6.0,82,0.00,,,0.00,Wunderground v.1.15,2013-01-28 17:59:00,
2013-01-28 10:04:00,48.7,43.1,30.20,WSW,238,3.0,5.0,81,0.00,,,0.00,Wunderground v.1.15,2013-01-28 18:04:00,
2013-01-28 10:10:00,48.9,43.0,30.20,SW,234,2.0,5.0,80,0.00,,,0.00,Wunderground v.1.15,2013-01-28 18:10:00,
2013-01-28 10:15:00,49.3,42.7,30.20,NW,308,3.0,10.0,78,0.00,,,0.00,Wunderground v.1.15,2013-01-28 18:15:00,
2013-01-28 10:20:00,49.9,42.3,30.20,NW,325,4.0,5.0,75,0.00,,,0.00,Wunderground v.1.15,2013-01-28 18:20:00,
2013-01-28 10:26:00,50.0,42.0,30.20,WNW,288,6.0,11.0,74,0.00,,,0.00,Wunderground v.1.15,2013-01-28 18:26:00,
2013-01-28 10:31:00,50.0,42.0,30.20,NW,309,7.0,13.0,74,0.00,,,0.00,Wunderground v.1.15,2013-01-28 18:31:00,
2013-01-28 10:37:00,50.0,41.7,30.21,NNW,333,6.0,13.0,73,0.00,,,0.00,Wunderground v.1.15,2013-01-28 18:37:00,
2013-01-28 10:42:00,50.3,42.0,30.20,ENE,59,4.0,5.0,73,0.00,,,0.00,Wunderground v.1.15,2013-01-28 18:42:00,
2013-01-28 10:47:00,50.8,42.1,30.20,NE,37,3.0,6.0,72,0.00,,,0.00,Wunderground v.1.15,2013-01-28 18:47:00,
2013-01-28 10:53:00,51.0,42.3,30.20,North,10,4.0,10.0,72,0.00,,,0.00,Wunderground v.1.15,2013-01-28 18:53:00,
2013-01-28 10:58:00,51.0,42.3,30.20,SE,146,5.0,10.0,72,0.00,,,0.00,Wunderground v.1.15,2013-01-28 18:58:00,
2013-01-28 11:03:00,51.6,41.8,30.21,WNW,287,4.0,10.0,69,0.00,,,0.00,Wunderground v.1.15,2013-01-28 19:03:00,
2013-01-28 11:09:00,51.7,42.2,30.21,NNW,333,4.0,10.0,70,0.00,,,0.00,Wunderground v.1.15,2013-01-28 19:09:00,
2013-01-28 11:14:00,52.0,42.1,30.21,WSW,250,4.0,9.0,69,0.00,,,0.00,Wunderground v.1.15,2013-01-28 19:14:00,
2013-01-28 11:20:00,53.4,43.1,30.21,NNE,22,3.0,6.0,68,0.00,,,0.00,Wunderground v.1.15,2013-01-28 19:20:00,
2013-01-28 11:26:00,52.7,41.3,30.21,NW,309,4.0,9.0,65,0.00,,,0.00,Wunderground v.1.15,2013-01-28 19:26:00,
2013-01-28 11:32:00,52.7,40.9,30.21,WSW,245,6.0,10.0,64,0.00,,,0.00,Wunderground v.1.15,2013-01-28 19:32:00,
2013-01-28 11:38:00,53.0,40.7,30.21,North,3,6.0,10.0,63,0.00,,,0.00,Wunderground v.1.15,2013-01-28 19:38:00,
2013-01-28 11:43:00,53.2,40.5,30.21,NNW,330,7.0,13.0,62,0.00,,,0.00,Wunderground v.1.15,2013-01-28 19:43:00,
2013-01-28 11:48:00,53.1,40.8,30.20,NNW,330,8.0,13.0,63,0.00,,,0.00,Wunderground v.1.15,2013-01-28 19:48:00,
2013-01-28 11:53:00,53.6,41.3,30.20,NNE,15,6.0,9.0,63,0.00,,,0.00,Wunderground v.1.15,2013-01-28 19:53:00,
2013-01-28 11:59:00,53.7,40.6,30.20,North,8,6.0,11.0,61,0.00,,,0.00,Wunderground v.1.15,2013-01-28 19:59:00,
2013-01-28 12:04:00,53.9,41.2,30.20,WNW,293,6.0,7.0,62,0.00,,,0.00,Wunderground v.1.15,2013-01-28 20:04:00,
2013-01-28 12:10:00,53.7,41.4,30.20,NW,315,6.0,9.0,63,0.00,,,0.00,Wunderground v.1.15,2013-01-28 20:10:00,
2013-01-28 12:15:00,54.0,41.3,30.20,NW,312,6.0,11.0,62,0.00,,,0.00,Wunderground v.1.15,2013-01-28 20:15:00,
2013-01-28 12:20:00,54.1,40.9,30.20,NW,313,6.0,6.0,61,0.00,,,0.00,Wunderground v.1.15,2013-01-28 20:20:00,
2013-01-28 12:25:00,54.1,40.9,30.20,SW,214,5.0,6.0,61,0.00,,,0.00,Wunderground v.1.15,2013-01-28 20:25:00,
2013-01-28 12:30:00,54.6,41.4,30.20,NW,325,4.0,4.0,61,0.00,,,0.00,Wunderground v.1.15,2013-01-28 20:30:00,
2013-01-28 12:35:00,55.5,41.4,30.19,NNW,327,3.0,4.0,59,0.00,,,0.00,Wunderground v.1.15,2013-01-28 20:35:00,
2013-01-28 12:40:00,55.3,41.2,30.19,SSW,207,4.0,4.0,59,0.00,,,0.00,Wunderground v.1.15,2013-01-28 20:40:00,
2013-01-28 12:45:00,55.2,40.2,30.19,NW,315,5.0,10.0,57,0.00,,,0.00,Wunderground v.1.15,2013-01-28 20:45:00,
2013-01-28 12:50:00,55.4,40.9,30.19,NNW,333,4.0,4.0,58,0.00,,,0.00,Wunderground v.1.15,2013-01-28 20:50:00,
2013-01-28 12:55:00,55.7,40.7,30.19,WSW,257,4.0,8.0,57,0.00,,,0.00,Wunderground v.1.15,2013-01-28 20:55:00,
2013-01-28 13:01:00,56.2,39.8,30.19,NNE,23,4.0,11.0,54,0.00,,,0.00,Wunderground v.1.15,2013-01-28 21:01:00,
2013-01-28 13:06:00,56.1,39.2,30.19,NW,304,5.0,11.0,53,0.00,,,0.00,Wunderground v.1.15,2013-01-28 21:06:00,
2013-01-28 13:11:00,56.2,38.3,30.19,WNW,287,6.0,7.0,51,0.00,,,0.00,Wunderground v.1.15,2013-01-28 21:11:00,
2013-01-28 13:17:00,56.5,42.3,30.19,West,259,5.0,7.0,59,0.00,,,0.00,Wunderground v.1.15,2013-01-28 21:17:00,
2013-01-28 13:22:00,56.1,43.7,30.18,SE,133,3.0,4.0,63,0.00,,,0.00,Wunderground v.1.15,2013-01-28 21:22:00,
2013-01-28 13:27:00,56.3,43.4,30.18,NW,325,3.0,5.0,62,0.00,,,0.00,Wunderground v.1.15,2013-01-28 21:27:00,
2013-01-28 13:32:00,56.5,38.1,30.18,North,4,4.0,12.0,50,0.00,,,0.00,Wunderground v.1.15,2013-01-28 21:32:00,
2013-01-28 13:38:00,56.6,37.6,30.18,NW,321,5.0,12.0,49,0.00,,,0.00,Wunderground v.1.15,2013-01-28 21:38:00,
2013-01-28 13:43:00,56.9,36.9,30.18,WNW,293,7.0,13.0,47,0.00,,,0.00,Wunderground v.1.15,2013-01-28 21:43:00,
2013-01-28 13:48:00,56.8,37.8,30.18,NW,316,7.0,13.0,49,0.00,,,0.00,Wunderground v.1.15,2013-01-28 21:48:00,
2013-01-28 13:53:00,57.0,36.4,30.18,WNW,297,6.0,12.0,46,0.00,,,0.00,Wunderground v.1.15,2013-01-28 21:53:00,
2013-01-28 13:58:00,57.0,37.5,30.18,SW,214,6.0,12.0,48,0.00,,,0.00,Wunderground v.1.15,2013-01-28 21:58:00,
2013-01-28 14:04:00,57.0,35.9,30.18,NNE,14,6.0,8.0,45,0.00,,,0.00,Wunderground v.1.15,2013-01-28 22:04:00,
2013-01-28 14:09:00,56.7,35.6,30.18,WSW,245,7.0,12.0,45,0.00,,,0.00,Wunderground v.1.15,2013-01-28 22:09:00,
2013-01-28 14:15:00,56.9,36.3,30.18,WNW,298,6.0,7.0,46,0.00,,,0.00,Wunderground v.1.15,2013-01-28 22:15:00,
2013-01-28 14:20:00,56.8,36.8,30.18,West,267,6.0,6.0,47,0.00,,,0.00,Wunderground v.1.15,2013-01-28 22:20:00,
2013-01-28 14:25:00,57.1,37.0,30.18,NNW,346,6.0,12.0,47,0.00,,,0.00,Wunderground v.1.15,2013-01-28 22:25:00,
2013-01-28 14:30:00,57.4,37.3,30.18,WNW,285,5.0,5.0,47,0.00,,,0.00,Wunderground v.1.15,2013-01-28 22:30:00,
2013-01-28 14:36:00,57.4,36.2,30.18,WNW,288,5.0,9.0,45,0.00,,,0.00,Wunderground v.1.15,2013-01-28 22:36:00,
2013-01-28 14:41:00,57.6,37.0,30.18,NW,319,4.0,4.0,46,0.00,,,0.00,Wunderground v.1.15,2013-01-28 22:41:00,
2013-01-28 14:46:00,57.2,36.6,30.18,SW,214,5.0,11.0,46,0.00,,,0.00,Wunderground v.1.15,2013-01-28 22:46:00,
2013-01-28 14:52:00,57.3,36.7,30.18,NW,315,6.0,7.0,46,0.00,,,0.00,Wunderground v.1.15,2013-01-28 22:52:00,
2013-01-28 14:58:00,57.2,36.0,30.19,NNE,14,5.0,7.0,45,0.00,,,0.00,Wunderground v.1.15,2013-01-28 22:58:00,
2013-01-28 15:04:00,57.2,36.0,30.18,NE,34,5.0,7.0,45,0.00,,,0.00,Wunderground v.1.15,2013-01-28 23:04:00,
2013-01-28 15:09:00,57.3,36.1,30.19,North,6,6.0,9.0,45,0.00,,,0.00,Wunderground v.1.15,2013-01-28 23:09:00,
2013-01-28 15:15:00,57.1,35.9,30.18,NNW,327,6.0,10.0,45,0.00,,,0.00,Wunderground v.1.15,2013-01-28 23:15:00,
2013-01-28 15:20:00,57.1,35.9,30.18,NNE,21,7.0,7.0,45,0.00,,,0.00,Wunderground v.1.15,2013-01-28 23:20:00,
2013-01-28 15:25:00,57.0,35.9,30.19,NNW,343,8.0,14.0,45,0.00,,,0.00,Wunderground v.1.15,2013-01-28 23:25:00,
2013-01-28 15:30:00,57.1,36.5,30.19,North,3,7.0,7.0,46,0.00,,,0.00,Wunderground v.1.15,2013-01-28 23:30:00,
2013-01-28 15:36:00,56.9,37.4,30.19,West,260,5.0,11.0,48,0.00,,,0.00,Wunderground v.1.15,2013-01-28 23:36:00,
2013-01-28 15:42:00,56.8,36.8,30.18,NW,323,6.0,7.0,47,0.00,,,0.00,Wunderground v.1.15,2013-01-28 23:42:00,
2013-01-28 15:47:00,56.9,37.4,30.18,NNE,13,6.0,8.0,48,0.00,,,0.00,Wunderground v.1.15,2013-01-28 23:47:00,
2013-01-28 15:52:00,56.9,36.9,30.18,NW,317,5.0,6.0,47,0.00,,,0.00,Wunderground v.1.15,2013-01-28 23:52:00,
2013-01-28 15:57:00,56.7,36.7,30.18,NW,323,6.0,7.0,47,0.00,,,0.00,Wunderground v.1.15,2013-01-28 23:57:00,
2013-01-28 16:03:00,56.8,37.3,30.18,NW,309,6.0,11.0,48,0.00,,,0.00,Wunderground v.1.15,2013-01-29 00:03:00,
2013-01-28 16:08:00,56.8,37.8,30.18,NNW,345,6.0,11.0,49,0.00,,,0.00,Wunderground v.1.15,2013-01-29 00:08:00,
2013-01-28 16:13:00,56.8,37.8,30.18,NW,304,5.0,6.0,49,0.00,,,0.00,Wunderground v.1.15,2013-01-29 00:13:00,
2013-01-28 16:19:00,56.6,38.2,30.18,North,7,5.0,8.0,50,0.00,,,0.00,Wunderground v.1.15,2013-01-29 00:19:00,
2013-01-28 16:24:00,56.4,38.0,30.19,NNW,346,5.0,8.0,50,0.00,,,0.00,Wunderground v.1.15,2013-01-29 00:24:00,
2013-01-28 16:30:00,56.3,37.9,30.18,NNW,330,4.0,4.0,50,0.00,,,0.00,Wunderground v.1.15,2013-01-29 00:30:00,
2013-01-28 16:35:00,56.1,38.2,30.18,NNE,14,4.0,6.0,51,0.00,,,0.00,Wunderground v.1.15,2013-01-29 00:35:00,
2013-01-28 16:41:00,56.1,38.2,30.18,North,7,4.0,4.0,51,0.00,,,0.00,Wunderground v.1.15,2013-01-29 00:41:00,
2013-01-28 16:46:00,55.9,38.5,30.18,NNW,333,4.0,6.0,52,0.00,,,0.00,Wunderground v.1.15,2013-01-29 00:46:00,
2013-01-28 16:51:00,55.8,38.9,30.18,North,359,4.0,5.0,53,0.00,,,0.00,Wunderground v.1.15,2013-01-29 00:51:00,
2013-01-28 16:56:00,55.5,38.6,30.18,NNW,327,4.0,5.0,53,0.00,,,0.00,Wunderground v.1.15,2013-01-29 00:56:00,
2013-01-28 17:01:00,55.4,38.5,30.18,West,280,4.0,5.0,53,0.00,,,0.00,Wunderground v.1.15,2013-01-29 01:01:00,
2013-01-28 17:06:00,55.2,38.4,30.19,NNW,333,5.0,8.0,53,0.00,,,0.00,Wunderground v.1.15,2013-01-29 01:06:00,
2013-01-28 17:11:00,55.0,38.6,30.19,NW,310,4.0,4.0,54,0.00,,,0.00,Wunderground v.1.15,2013-01-29 01:11:00,
2013-01-28 17:16:00,54.8,38.9,30.19,WNW,295,3.0,6.0,55,0.00,,,0.00,Wunderground v.1.15,2013-01-29 01:16:00,
2013-01-28 17:21:00,54.5,39.1,30.20,NW,305,3.0,4.0,56,0.00,,,0.00,Wunderground v.1.15,2013-01-29 01:21:00,
2013-01-28 17:27:00,54.3,39.4,30.20,WNW,300,3.0,5.0,57,0.00,,,0.00,Wunderground v.1.15,2013-01-29 01:27:00,
2013-01-28 17:32:00,54.0,40.4,30.20,WNW,288,2.0,4.0,60,0.00,,,0.00,Wunderground v.1.15,2013-01-29 01:32:00,
2013-01-28 17:37:00,53.6,41.7,30.20,WNW,293,2.0,4.0,64,0.00,,,0.00,Wunderground v.1.15,2013-01-29 01:37:00,
2013-01-28 17:44:00,53.0,42.7,30.20,West,274,4.0,4.0,68,0.00,,,0.00,Wunderground v.1.15,2013-01-29 01:44:00,
2013-01-28 17:49:00,52.7,42.8,30.21,NW,313,4.0,8.0,69,0.00,,,0.00,Wunderground v.1.15,2013-01-29 01:49:00,
2013-01-28 17:55:00,52.3,42.8,30.21,NW,311,4.0,8.0,70,0.00,,,0.00,Wunderground v.1.15,2013-01-29 01:55:00,
2013-01-28 18:00:00,52.0,42.9,30.21,WNW,286,3.0,6.0,71,0.00,,,0.00,Wunderground v.1.15,2013-01-29 02:00:00,
2013-01-28 18:05:00,51.8,43.1,30.21,NNW,330,3.0,6.0,72,0.00,,,0.00,Wunderground v.1.15,2013-01-29 02:05:00,
2013-01-28 18:11:00,51.4,43.0,30.21,West,281,4.0,4.0,73,0.00,,,0.00,Wunderground v.1.15,2013-01-29 02:11:00,
2013-01-28 18:16:00,51.2,42.8,30.22,WNW,301,4.0,4.0,73,0.00,,,0.00,Wunderground v.1.15,2013-01-29 02:16:00,
2013-01-28 18:22:00,50.9,42.9,30.22,NW,326,3.0,4.0,74,0.00,,,0.00,Wunderground v.1.15,2013-01-29 02:22:00,
2013-01-28 18:27:00,50.6,43.0,30.22,NW,308,3.0,5.0,75,0.00,,,0.00,Wunderground v.1.15,2013-01-29 02:27:00,
2013-01-28 18:32:00,50.5,42.9,30.22,WNW,302,4.0,6.0,75,0.00,,,0.00,Wunderground v.1.15,2013-01-29 02:32:00,
2013-01-28 18:38:00,50.4,42.8,30.22,NNW,336,5.0,6.0,75,0.00,,,0.00,Wunderground v.1.15,2013-01-29 02:38:00,
2013-01-28 18:44:00,50.2,42.9,30.22,NNW,330,4.0,6.0,76,0.00,,,0.00,Wunderground v.1.15,2013-01-29 02:44:00,
2013-01-28 18:49:00,50.0,42.7,30.22,NW,318,4.0,6.0,76,0.00,,,0.00,Wunderground v.1.15,2013-01-29 02:49:00,
2013-01-28 18:55:00,49.8,42.9,30.22,WNW,298,4.0,6.0,77,0.00,,,0.00,Wunderground v.1.15,2013-01-29 02:55:00,
2013-01-28 19:01:00,49.6,42.7,30.23,NW,321,4.0,6.0,77,0.00,,,0.00,Wunderground v.1.15,2013-01-29 03:01:00,
2013-01-28 19:06:00,49.4,42.8,30.23,NW,308,5.0,8.0,78,0.00,,,0.00,Wunderground v.1.15,2013-01-29 03:06:00,
2013-01-28 19:12:00,49.3,42.7,30.23,North,353,5.0,5.0,78,0.00,,,0.00,Wunderground v.1.15,2013-01-29 03:12:00,
2013-01-28 19:18:00,49.1,42.9,30.23,North,1,5.0,7.0,79,0.00,,,0.00,Wunderground v.1.15,2013-01-29 03:18:00,
2013-01-28 19:23:00,49.0,42.8,30.23,North,10,4.0,7.0,79,0.00,,,0.00,Wunderground v.1.15,2013-01-29 03:23:00,
2013-01-28 19:28:00,48.9,42.7,30.23,North,354,4.0,7.0,79,0.00,,,0.00,Wunderground v.1.15,2013-01-29 03:28:00,
2013-01-28 19:34:00,48.7,42.5,30.24,NNW,335,4.0,5.0,79,0.00,,,0.00,Wunderground v.1.15,2013-01-29 03:34:00,
2013-01-28 19:40:00,48.5,42.6,30.24,NNW,332,4.0,7.0,80,0.00,,,0.00,Wunderground v.1.15,2013-01-29 03:40:00,
2013-01-28 19:46:00,48.3,42.4,30.24,NW,315,4.0,7.0,80,0.00,,,0.00,Wunderground v.1.15,2013-01-29 03:46:00,
2013-01-28 19:52:00,48.1,42.2,30.24,North,352,3.0,4.0,80,0.00,,,0.00,Wunderground v.1.15,2013-01-29 03:52:00,
2013-01-28 19:57:00,48.0,42.4,30.24,WNW,294,2.0,4.0,81,0.00,,,0.00,Wunderground v.1.15,2013-01-29 03:57:00,
2013-01-28 20:02:00,47.8,42.3,30.24,NNW,336,2.0,4.0,81,0.00,,,0.00,Wunderground v.1.15,2013-01-29 04:02:00,
2013-01-28 20:08:00,47.6,42.4,30.24,NW,307,2.0,5.0,82,0.00,,,0.00,Wunderground v.1.15,2013-01-29 04:08:00,
2013-01-28 20:14:00,47.4,42.2,30.24,NNE,25,2.0,4.0,82,0.00,,,0.00,Wunderground v.1.15,2013-01-29 04:14:00,
2013-01-28 20:20:00,47.2,42.0,30.24,NE,37,2.0,4.0,82,0.00,,,0.00,Wunderground v.1.15,2013-01-29 04:20:00,
2013-01-28 20:26:00,47.2,42.3,30.24,North,3,3.0,5.0,83,0.00,,,0.00,Wunderground v.1.15,2013-01-29 04:26:00,
2013-01-28 20:31:00,47.1,41.9,30.24,NNW,340,3.0,4.0,82,0.00,,,0.00,Wunderground v.1.15,2013-01-29 04:31:00,
2013-01-28 20:36:00,47.0,41.8,30.24,North,352,3.0,4.0,82,0.00,,,0.00,Wunderground v.1.15,2013-01-29 04:36:00,
2013-01-28 20:42:00,46.9,41.7,30.24,NW,311,1.0,4.0,82,0.00,,,0.00,Wunderground v.1.15,2013-01-29 04:42:00,
2013-01-28 20:48:00,46.5,41.6,30.24,SSW,211,1.0,4.0,83,0.00,,,0.00,Wunderground v.1.15,2013-01-29 04:48:00,
2013-01-28 20:54:00,46.3,41.7,30.24,SSW,195,2.0,4.0,84,0.00,,,0.00,Wunderground v.1.15,2013-01-29 04:54:00,
2013-01-28 20:59:00,46.1,41.5,30.24,SW,214,1.0,4.0,84,0.00,,,0.00,Wunderground v.1.15,2013-01-29 04:59:00,
2013-01-28 21:02:00,46.0,41.7,30.24,SW,231,1.0,4.0,85,0.00,,,0.00,Wunderground v.1.15,2013-01-29 05:02:00,
2013-01-28 21:03:00,46.0,41.4,30.24,SW,231,1.0,4.0,84,0.00,,,0.00,Wunderground v.1.15,2013-01-29 05:03:00,
2013-01-28 21:06:00,45.9,41.3,30.24,SSW,209,0.0,4.0,84,0.00,,,0.00,Wunderground v.1.15,2013-01-29 05:06:00,
2013-01-28 21:07:00,45.9,41.3,30.24,SSW,209,0.0,4.0,84,0.00,,,0.00,Wunderground v.1.15,2013-01-29 05:07:00,
2013-01-28 21:13:00,45.5,41.3,30.24,West,281,1.0,4.0,85,0.00,,,0.00,Wunderground v.1.15,2013-01-29 05:13:00,
2013-01-28 21:19:00,45.3,41.1,30.24,WNW,282,1.0,4.0,85,0.00,,,0.00,Wunderground v.1.15,2013-01-29 05:19:00,
2013-01-28 21:24:00,45.2,41.3,30.25,West,280,1.0,4.0,86,0.00,,,0.00,Wunderground v.1.15,2013-01-29 05:24:00,
2013-01-28 21:29:00,45.2,41.3,30.25,West,280,0.0,4.0,86,0.00,,,0.00,Wunderground v.1.15,2013-01-29 05:29:00,
2013-01-28 21:34:00,45.1,41.2,30.25,South,191,0.0,4.0,86,0.00,,,0.00,Wunderground v.1.15,2013-01-29 05:34:00,
2013-01-28 21:40:00,44.9,41.0,30.25,SW,223,0.0,4.0,86,0.00,,,0.00,Wunderground v.1.15,2013-01-29 05:40:00,
2013-01-28 21:46:00,44.9,41.0,30.25,NNE,20,1.0,4.0,86,0.00,,,0.00,Wunderground v.1.15,2013-01-29 05:46:00,
2013-01-28 21:52:00,44.4,40.8,30.25,NNE,20,2.0,4.0,87,0.00,,,0.00,Wunderground v.1.15,2013-01-29 05:52:00,
2013-01-28 21:58:00,44.0,40.4,30.25,NNE,19,1.0,4.0,87,0.00,,,0.00,Wunderground v.1.15,2013-01-29 05:58:00,
2013-01-28 22:03:00,43.6,40.3,30.25,NNE,20,0.0,4.0,88,0.00,,,0.00,Wunderground v.1.15,2013-01-29 06:03:00,
2013-01-28 22:09:00,43.3,40.0,30.25,North,350,1.0,4.0,88,0.00,,,0.00,Wunderground v.1.15,2013-01-29 06:09:00,
2013-01-28 22:14:00,42.9,39.6,30.25,WNW,298,1.0,4.0,88,0.00,,,0.00,Wunderground v.1.15,2013-01-29 06:14:00,
2013-01-28 22:19:00,42.6,39.3,30.25,WNW,299,1.0,4.0,88,0.00,,,0.00,Wunderground v.1.15,2013-01-29 06:19:00,
2013-01-28 22:25:00,42.2,39.2,30.25,WNW,298,1.0,4.0,89,0.00,,,0.00,Wunderground v.1.15,2013-01-29 06:25:00,
2013-01-28 22:31:00,42.0,39.0,30.25,WNW,299,1.0,4.0,89,0.00,,,0.00,Wunderground v.1.15,2013-01-29 06:31:00,
2013-01-28 22:36:00,41.8,38.8,30.25,West,269,1.0,4.0,89,0.00,,,0.00,Wunderground v.1.15,2013-01-29 06:36:00,
2013-01-28 22:42:00,41.6,38.9,30.25,West,269,1.0,4.0,90,0.00,,,0.00,Wunderground v.1.15,2013-01-29 06:42:00,
2013-01-28 22:49:00,41.4,38.7,30.25,West,269,0.0,4.0,90,0.00,,,0.00,Wunderground v.1.15,2013-01-29 06:49:00,
2013-01-28 22:54:00,41.2,38.5,30.25,West,269,1.0,4.0,90,0.00,,,0.00,Wunderground v.1.15,2013-01-29 06:54:00,
2013-01-28 22:59:00,41.1,38.7,30.25,West,271,1.0,4.0,91,0.00,,,0.00,Wunderground v.1.15,2013-01-29 06:59:00,
2013-01-28 23:04:00,41.0,38.6,30.26,West,274,1.0,4.0,91,0.00,,,0.00,Wunderground v.1.15,2013-01-29 07:04:00,
2013-01-28 23:09:00,41.0,38.6,30.26,West,273,1.0,4.0,91,0.00,,,0.00,Wunderground v.1.15,2013-01-29 07:09:00,
2013-01-28 23:15:00,40.9,38.5,30.26,West,274,1.0,4.0,91,0.00,,,0.00,Wunderground v.1.15,2013-01-29 07:15:00,
2013-01-28 23:21:00,40.7,38.3,30.26,West,274,1.0,4.0,91,0.00,,,0.00,Wunderground v.1.15,2013-01-29 07:21:00,
2013-01-28 23:26:00,40.7,38.3,30.26,WNW,286,1.0,4.0,91,0.00,,,0.00,Wunderground v.1.15,2013-01-29 07:26:00,
2013-01-28 23:31:00,40.6,38.2,30.26,WNW,297,1.0,4.0,91,0.00,,,0.00,Wunderground v.1.15,2013-01-29 07:31:00,
2013-01-28 23:36:00,40.4,38.0,30.26,North,1,2.0,4.0,91,0.00,,,0.00,Wunderground v.1.15,2013-01-29 07:36:00,
2013-01-28 23:41:00,40.2,37.8,30.26,North,2,1.0,4.0,91,0.00,,,0.00,Wunderground v.1.15,2013-01-29 07:41:00,
2013-01-28 23:47:00,40.1,37.7,30.26,NNW,339,1.0,4.0,91,0.00,,,0.00,Wunderground v.1.15,2013-01-29 07:47:00,
2013-01-28 23:54:00,39.9,37.5,30.26,NW,326,1.0,4.0,91,0.00,,,0.00,Wunderground v.1.15,2013-01-29 07:54:00,
2013-01-28 23:59:00,40.0,37.9,30.26,NW,326,1.0,4.0,92,0.00,,,0.00,Wunderground v.1.15,2013-01-29 07:59:00,